createdAt,value
2023-04-09T00:01:21.851Z,1.65
2023-04-09T00:04:11.367Z,2.47
2023-04-09T00:06:59.884Z,1.52
2023-04-09T00:09:48.349Z,3.05
2023-04-09T00:12:38.009Z,0.30
2023-04-09T00:15:31.327Z,2.95
2023-04-09T00:18:20.597Z,3.25
2023-04-09T00:21:09.100Z,3.35
2023-04-09T00:23:57.833Z,2.25
2023-04-09T00:26:46.521Z,2.72
2023-04-09T00:29:35.059Z,2.17
2023-04-09T00:32:23.802Z,0.43
2023-04-09T00:35:13.371Z,0.82
2023-04-09T00:38:02.062Z,0.95
2023-04-09T00:40:51.600Z,0.20
2023-04-09T00:43:40.893Z,2.10
2023-04-09T00:46:29.844Z,9.32
2023-04-09T00:49:18.147Z,1.20
2023-04-09T00:52:07.037Z,0.30
2023-04-09T00:54:55.851Z,0.88
2023-04-09T00:57:45.111Z,2.53
2023-04-09T01:00:33.372Z,2.28
2023-04-09T01:03:21.630Z,1.25
2023-04-09T01:06:23.104Z,2.85
2023-04-09T01:09:15.633Z,2.47
2023-04-09T01:12:13.188Z,0.60
2023-04-09T01:15:08.176Z,1.15
2023-04-09T01:18:12.134Z,2.13
2023-04-09T01:21:09.720Z,6.10
2023-04-09T01:24:26.960Z,0.32
2023-04-09T01:27:15.905Z,0.50
2023-04-09T01:30:16.934Z,2.60
2023-04-09T01:33:06.476Z,1.27
2023-04-09T01:35:56.863Z,1.73
2023-04-09T01:38:46.473Z,0.95
2023-04-09T01:41:36.365Z,0.30
2023-04-09T01:44:26.345Z,5.72
2023-04-09T01:47:40.917Z,0.20
2023-04-09T01:53:18.865Z,1.88
2023-04-09T01:56:08.481Z,0.68
2023-04-09T01:58:57.674Z,0.85
2023-04-09T02:01:50.144Z,0.47
2023-04-09T02:04:47.386Z,0.65
2023-04-09T02:07:38.742Z,0.55
2023-04-09T02:10:29.802Z,1.75
2023-04-09T02:13:21.134Z,0.68
2023-04-09T02:16:12.512Z,2.83
2023-04-09T02:19:03.812Z,0.70
2023-04-09T02:21:52.037Z,1.08
2023-04-09T02:24:40.809Z,0.30
2023-04-09T02:27:30.043Z,0.65
2023-04-09T02:30:18.236Z,0.40
2023-04-09T02:33:06.971Z,0.65
2023-04-09T02:35:55.881Z,0.38
2023-04-09T02:38:44.507Z,0.45
2023-04-09T02:41:33.254Z,1.40
2023-04-09T02:44:22.170Z,2.38
2023-04-09T02:47:11.310Z,0.65
2023-04-09T02:50:00.844Z,3.90
2023-04-09T02:52:52.245Z,0.30
2023-04-09T02:55:40.665Z,1.30
2023-04-09T02:58:30.043Z,1.15
2023-04-09T03:01:18.368Z,0.55
2023-04-09T03:04:07.168Z,0.45
2023-04-09T03:06:55.653Z,0.63
2023-04-09T03:09:45.166Z,1.88
2023-04-09T03:12:33.440Z,0.77
2023-04-09T03:15:22.023Z,0.57
2023-04-09T03:18:10.524Z,0.80
2023-04-09T03:21:00.151Z,1.35
2023-04-09T03:23:50.190Z,0.82
2023-04-09T03:26:38.661Z,0.30
2023-04-09T03:29:28.754Z,1.58
2023-04-09T03:32:18.948Z,0.60
2023-04-09T03:35:08.519Z,0.80
2023-04-09T03:37:57.735Z,0.30
2023-04-09T03:40:46.444Z,4.03
2023-04-09T03:43:35.544Z,0.25
2023-04-09T03:46:25.338Z,0.22
2023-04-09T03:49:14.166Z,0.35
2023-04-09T03:52:04.736Z,1.48
2023-04-09T03:54:59.178Z,0.50
2023-04-09T03:57:48.728Z,1.02
2023-04-09T04:00:40.048Z,0.90
2023-04-09T04:03:44.590Z,0.68
2023-04-09T04:06:53.525Z,0.82
2023-04-09T04:09:48.504Z,0.73
2023-04-09T04:12:41.181Z,0.57
2023-04-09T04:18:22.497Z,2.10
2023-04-09T04:21:14.726Z,0.20
2023-04-09T04:24:06.927Z,1.10
2023-04-09T04:26:56.623Z,0.35
2023-04-09T04:29:49.171Z,0.22
2023-04-09T04:32:48.874Z,0.32
2023-04-09T04:35:38.974Z,0.65
2023-04-09T04:38:31.127Z,2.03
2023-04-09T04:41:22.754Z,0.40
2023-04-09T04:44:18.131Z,0.57
2023-04-09T04:47:07.214Z,0.68
2023-04-09T04:49:55.818Z,3.47
2023-04-09T04:52:44.677Z,1.23
2023-04-09T04:55:35.453Z,0.20
2023-04-09T04:58:26.254Z,0.30
2023-04-09T05:01:19.110Z,0.35
2023-04-09T05:04:09.141Z,0.43
2023-04-09T05:06:59.146Z,0.20
2023-04-09T05:09:47.624Z,2.90
2023-04-09T05:12:36.043Z,0.85
2023-04-09T05:15:26.392Z,0.63
2023-04-09T05:18:14.979Z,1.48
2023-04-09T05:21:03.826Z,1.33
2023-04-09T05:23:54.257Z,0.70
2023-04-09T05:26:43.085Z,0.68
2023-04-09T05:29:32.249Z,0.98
2023-04-09T05:32:21.417Z,0.95
2023-04-09T05:35:10.702Z,1.27
2023-04-09T05:38:02.808Z,1.45
2023-04-09T05:40:51.868Z,0.73
2023-04-09T05:43:40.998Z,1.77
2023-04-09T05:46:30.073Z,0.85
2023-04-09T05:49:18.814Z,0.57
2023-04-09T05:52:11.086Z,1.30
2023-04-09T05:54:59.874Z,1.65
2023-04-09T05:58:01.719Z,2.70
2023-04-09T06:00:51.973Z,0.80
2023-04-09T06:03:41.763Z,0.75
2023-04-09T06:06:31.105Z,0.55
2023-04-09T06:09:22.001Z,0.77
2023-04-09T06:12:10.566Z,1.38
2023-04-09T06:14:58.951Z,1.13
2023-04-09T06:17:48.928Z,1.00
2023-04-09T06:20:37.694Z,0.90
2023-04-09T06:23:26.484Z,0.40
2023-04-09T06:26:15.216Z,0.85
2023-04-09T06:29:04.858Z,1.17
2023-04-09T06:31:53.547Z,1.25
2023-04-09T06:34:42.289Z,3.10
2023-04-09T06:37:31.273Z,0.80
2023-04-09T06:40:23.023Z,1.98
2023-04-09T06:43:12.212Z,1.42
2023-04-09T06:46:10.035Z,1.15
2023-04-09T06:48:58.599Z,0.75
2023-04-09T06:51:48.219Z,6.70
2023-04-09T06:54:36.912Z,6.50
2023-04-09T06:57:27.514Z,6.68
2023-04-09T07:00:16.556Z,6.75
2023-04-09T07:03:08.132Z,8.07
2023-04-09T07:05:57.760Z,6.65
2023-04-09T07:08:47.347Z,6.95
2023-04-09T07:11:35.547Z,5.10
2023-04-09T07:14:23.993Z,6.22
2023-04-09T07:17:12.822Z,7.07
2023-04-09T07:20:01.460Z,5.30
2023-04-09T07:22:50.988Z,5.57
2023-04-09T07:25:39.738Z,5.68
2023-04-09T07:28:28.598Z,5.65
2023-04-09T07:31:18.007Z,5.88
2023-04-09T07:34:06.869Z,5.60
2023-04-09T07:36:56.359Z,5.07
2023-04-09T07:39:44.783Z,5.90
2023-04-09T07:42:33.881Z,7.22
2023-04-09T07:45:22.426Z,6.13
2023-04-09T07:48:11.286Z,6.07
2023-04-09T07:51:00.732Z,6.50
2023-04-09T07:53:49.455Z,6.85
2023-04-09T07:56:38.065Z,8.02
2023-04-09T07:59:27.906Z,6.80
2023-04-09T08:02:16.650Z,7.68
2023-04-09T08:05:06.570Z,7.65
2023-04-09T08:07:54.747Z,7.20
2023-04-09T08:10:42.981Z,18.23
2023-04-09T08:13:31.640Z,10.68
2023-04-09T08:16:21.462Z,7.30
2023-04-09T08:19:10.770Z,8.70
2023-04-09T08:21:59.653Z,7.10
2023-04-09T08:24:52.570Z,9.88
2023-04-09T08:27:41.448Z,9.10
2023-04-09T08:30:30.746Z,8.65
2023-04-09T08:33:19.529Z,9.43
2023-04-09T08:36:11.993Z,8.30
2023-04-09T08:39:00.921Z,8.65
2023-04-09T08:41:51.409Z,8.63
2023-04-09T08:44:41.122Z,8.88
2023-04-09T08:47:30.461Z,8.18
2023-04-09T08:50:19.541Z,7.00
2023-04-09T08:53:09.860Z,6.40
2023-04-09T08:56:00.144Z,7.05
2023-04-09T08:58:49.038Z,5.10
2023-04-09T09:01:37.425Z,6.38
2023-04-09T09:04:43.407Z,5.00
2023-04-09T09:07:32.743Z,5.80
2023-04-09T09:10:21.332Z,5.07
2023-04-09T09:13:28.884Z,4.40
2023-04-09T09:16:18.513Z,5.05
2023-04-09T09:19:07.366Z,4.03
2023-04-09T09:22:00.678Z,4.82
2023-04-09T09:24:50.698Z,5.15
2023-04-09T09:27:43.232Z,4.00
2023-04-09T09:30:32.586Z,4.68
2023-04-09T09:33:21.332Z,4.43
2023-04-09T09:36:10.118Z,3.92
2023-04-09T09:39:02.237Z,3.63
2023-04-09T09:42:08.293Z,3.50
2023-04-09T09:44:57.635Z,3.95
2023-04-09T09:47:47.843Z,4.70
2023-04-09T09:50:37.969Z,4.50
2023-04-09T09:53:27.805Z,4.07
2023-04-09T09:56:25.033Z,4.68
2023-04-09T09:59:24.730Z,4.93
2023-04-09T10:02:20.489Z,3.85
2023-04-09T10:05:09.911Z,4.90
2023-04-09T10:08:00.558Z,5.25
2023-04-09T10:10:49.637Z,3.85
2023-04-09T10:14:10.721Z,4.35
2023-04-09T10:16:59.103Z,4.38
2023-04-09T10:20:01.948Z,4.38
2023-04-09T10:22:52.801Z,5.03
2023-04-09T10:25:42.585Z,3.97
2023-04-09T10:28:31.892Z,5.40
2023-04-09T10:31:21.256Z,3.83
2023-04-09T10:34:11.011Z,3.15
2023-04-09T10:37:00.145Z,4.65
2023-04-09T10:39:51.332Z,4.00
2023-04-09T10:42:42.499Z,3.50
2023-04-09T10:45:41.856Z,3.33
2023-04-09T10:48:34.746Z,4.07
2023-04-09T10:51:25.186Z,6.10
2023-04-09T10:54:34.451Z,5.70
2023-04-09T10:57:24.594Z,4.63
2023-04-09T11:00:14.093Z,4.38
2023-04-09T11:03:22.119Z,4.47
2023-04-09T11:06:11.641Z,4.60
2023-04-09T11:09:03.574Z,3.53
2023-04-09T11:11:54.313Z,3.85
2023-04-09T11:14:42.989Z,4.55
2023-04-09T11:17:36.159Z,4.50
2023-04-09T11:20:26.153Z,4.40
2023-04-09T11:23:15.742Z,4.72
2023-04-09T11:26:05.460Z,5.47
2023-04-09T11:28:57.789Z,6.28
2023-04-09T11:31:46.343Z,5.05
2023-04-09T11:34:34.697Z,4.57
2023-04-09T11:37:24.062Z,5.55
2023-04-09T11:40:21.999Z,4.43
2023-04-09T11:43:10.984Z,3.42
2023-04-09T11:46:00.680Z,4.97
2023-04-09T11:48:49.660Z,4.65
2023-04-09T11:51:38.685Z,4.00
2023-04-09T11:54:33.176Z,3.80
2023-04-09T11:57:22.467Z,3.85
2023-04-09T12:00:16.353Z,4.65
2023-04-09T12:03:05.905Z,3.65
2023-04-09T12:05:54.604Z,3.80
2023-04-09T12:08:43.829Z,4.13
2023-04-09T12:11:32.895Z,4.10
2023-04-09T12:14:22.710Z,3.83
2023-04-09T12:17:11.127Z,4.40
2023-04-09T12:19:59.345Z,4.03
2023-04-09T12:22:47.984Z,3.95
2023-04-09T12:25:40.223Z,3.67
2023-04-09T12:28:28.874Z,3.78
2023-04-09T12:31:17.686Z,3.63
2023-04-09T12:34:06.294Z,4.38
2023-04-09T12:36:54.505Z,3.88
2023-04-09T12:39:42.678Z,4.18
2023-04-09T12:42:31.839Z,5.90
2023-04-09T12:45:21.661Z,4.63
2023-04-09T12:48:10.030Z,5.22
2023-04-09T12:50:58.689Z,3.55
2023-04-09T12:53:47.690Z,4.85
2023-04-09T12:56:36.190Z,3.67
2023-04-09T12:59:24.842Z,4.78
2023-04-09T13:02:13.470Z,4.40
2023-04-09T13:05:02.073Z,4.40
2023-04-09T13:07:51.534Z,4.22
2023-04-09T13:10:41.081Z,4.47
2023-04-09T13:13:29.873Z,3.40
2023-04-09T13:16:18.072Z,5.10
2023-04-09T13:19:08.890Z,5.63
2023-04-09T13:21:57.113Z,4.18
2023-04-09T13:24:45.715Z,5.88
2023-04-09T13:27:34.410Z,5.57
2023-04-09T13:30:23.927Z,3.80
2023-04-09T13:33:12.968Z,4.22
2023-04-09T13:36:02.058Z,4.32
2023-04-09T13:39:16.711Z,4.50
2023-04-09T13:42:12.646Z,3.75
2023-04-09T13:45:01.717Z,4.53
2023-04-09T13:47:51.923Z,4.65
2023-04-09T13:50:41.289Z,4.15
2023-04-09T13:53:29.730Z,5.28
2023-04-09T13:56:18.006Z,5.18
2023-04-09T13:59:07.359Z,4.78
2023-04-09T14:01:56.565Z,4.18
2023-04-09T14:04:45.108Z,4.90
2023-04-09T14:07:33.900Z,5.50
2023-04-09T14:10:23.316Z,5.10
2023-04-09T14:13:12.630Z,4.57
2023-04-09T14:16:01.432Z,3.90
2023-04-09T14:18:50.368Z,4.18
2023-04-09T14:21:41.244Z,4.32
2023-04-09T14:24:29.809Z,4.07
2023-04-09T14:27:18.677Z,3.63
2023-04-09T14:30:08.093Z,5.13
2023-04-09T14:32:56.933Z,4.13
2023-04-09T14:35:46.069Z,3.90
2023-04-09T14:38:35.695Z,6.43
2023-04-09T14:41:24.096Z,3.78
2023-04-09T14:44:12.773Z,4.07
2023-04-09T14:47:01.130Z,4.38
2023-04-09T14:49:49.861Z,5.90
2023-04-09T14:52:39.451Z,4.75
2023-04-09T14:55:28.474Z,4.95
2023-04-09T14:58:16.700Z,4.95
2023-04-09T15:01:06.751Z,4.13
2023-04-09T15:03:55.999Z,4.10
2023-04-09T15:06:45.554Z,4.68
2023-04-09T15:09:34.279Z,4.10
2023-04-09T15:12:23.100Z,6.30
2023-04-09T15:15:14.138Z,4.07
2023-04-09T15:18:06.052Z,4.40
2023-04-09T15:20:54.709Z,5.63
2023-04-09T15:23:43.226Z,4.90
2023-04-09T15:26:34.630Z,5.63
2023-04-09T15:29:24.142Z,5.05
2023-04-09T15:32:13.079Z,4.43
2023-04-09T15:35:02.189Z,3.97
2023-04-09T15:37:54.324Z,5.43
2023-04-09T15:40:43.885Z,3.97
2023-04-09T15:43:47.174Z,5.63
2023-04-09T15:46:36.156Z,4.88
2023-04-09T15:49:25.724Z,5.38
2023-04-09T15:52:39.775Z,4.13
2023-04-09T15:55:29.304Z,21.00
2023-04-09T15:58:46.692Z,9.90
2023-04-09T16:01:36.795Z,10.63
2023-04-09T16:04:26.992Z,7.45
2023-04-09T16:07:16.864Z,4.13
2023-04-09T16:10:06.498Z,6.10
2023-04-09T16:12:55.540Z,5.53
2023-04-09T16:15:45.515Z,18.85
2023-04-09T16:18:34.794Z,13.52
2023-04-09T16:21:23.084Z,5.63
2023-04-09T16:24:12.925Z,5.97
2023-04-09T16:27:02.418Z,5.10
2023-04-09T16:29:50.774Z,5.10
2023-04-09T16:32:39.518Z,4.63
2023-04-09T16:35:28.932Z,5.30
2023-04-09T16:38:19.541Z,5.38
2023-04-09T16:41:08.117Z,4.70
2023-04-09T16:43:57.056Z,4.70
2023-04-09T16:46:45.951Z,6.43
2023-04-09T16:49:34.271Z,6.28
2023-04-09T16:52:22.836Z,6.65
2023-04-09T16:55:11.352Z,5.05
2023-04-09T16:58:01.155Z,4.95
2023-04-09T17:00:51.441Z,5.07
2023-04-09T17:03:41.175Z,6.20
2023-04-09T17:06:29.715Z,7.85
2023-04-09T17:09:17.975Z,5.88
2023-04-09T17:12:07.013Z,6.43
2023-04-09T17:14:56.153Z,4.43
2023-04-09T17:17:46.398Z,4.53
2023-04-09T17:20:35.557Z,6.05
2023-04-09T17:23:23.788Z,5.80
2023-04-09T17:26:13.210Z,6.35
2023-04-09T17:29:02.142Z,6.78
2023-04-09T17:31:53.235Z,7.57
2023-04-09T17:34:41.916Z,6.70
2023-04-09T17:37:31.288Z,7.82
2023-04-09T17:40:20.226Z,7.32
2023-04-09T17:43:08.890Z,7.25
2023-04-09T17:45:57.604Z,9.70
2023-04-09T17:48:46.041Z,15.35
2023-04-09T17:51:35.379Z,16.38
2023-04-09T17:54:24.227Z,22.13
2023-04-09T17:57:13.100Z,22.50
2023-04-09T18:00:01.944Z,23.42
2023-04-09T18:02:53.225Z,80.53
2023-04-09T18:05:41.990Z,40.38
2023-04-09T18:08:31.023Z,31.40
2023-04-09T18:11:19.379Z,22.70
2023-04-09T18:14:08.989Z,20.38
2023-04-09T18:16:58.026Z,27.23
2023-04-09T18:19:46.578Z,15.07
2023-04-09T18:22:35.377Z,17.02
2023-04-09T18:25:24.109Z,20.45
2023-04-09T18:28:13.060Z,23.98
2023-04-09T18:31:01.376Z,24.83
2023-04-09T18:33:49.923Z,24.00
2023-04-09T18:36:39.140Z,24.23
2023-04-09T18:39:28.381Z,25.30
2023-04-09T18:42:16.709Z,24.88
2023-04-09T18:45:06.053Z,18.90
2023-04-09T18:47:54.886Z,20.48
2023-04-09T18:50:43.927Z,29.15
2023-04-09T18:53:32.358Z,26.58
2023-04-09T18:56:21.305Z,24.10
2023-04-09T18:59:10.054Z,23.17
2023-04-09T19:01:58.677Z,15.30
2023-04-09T19:04:47.997Z,16.17
2023-04-09T19:07:37.864Z,11.63
2023-04-09T19:10:27.368Z,14.85
2023-04-09T19:13:16.989Z,14.15
2023-04-09T19:16:07.506Z,14.02
2023-04-09T19:18:56.920Z,17.33
2023-04-09T19:21:45.938Z,17.13
2023-04-09T19:24:34.762Z,16.45
2023-04-09T19:27:23.685Z,11.38
2023-04-09T19:30:13.249Z,22.45
2023-04-09T19:33:02.510Z,15.35
2023-04-09T19:35:52.425Z,25.67
2023-04-09T19:38:41.094Z,23.40
2023-04-09T19:41:30.149Z,26.23
2023-04-09T19:44:18.961Z,21.98
2023-04-09T19:47:07.734Z,23.25
2023-04-09T19:49:56.616Z,17.55
2023-04-09T19:52:45.364Z,14.82
2023-04-09T19:55:34.172Z,22.17
2023-04-09T19:58:23.239Z,16.83
2023-04-09T20:01:11.573Z,17.95
2023-04-09T20:04:01.230Z,18.08
2023-04-09T20:06:51.734Z,19.02
2023-04-09T20:09:42.707Z,22.33
2023-04-09T20:12:32.089Z,14.80
2023-04-09T20:15:21.446Z,17.00
2023-04-09T20:18:09.828Z,14.38
2023-04-09T20:20:58.207Z,17.13
2023-04-09T20:23:47.080Z,14.57
2023-04-09T20:26:35.898Z,17.30
2023-04-09T20:29:24.608Z,20.35
2023-04-09T20:32:13.630Z,25.30
2023-04-09T20:35:02.093Z,29.13
2023-04-09T20:37:51.438Z,28.00
2023-04-09T20:40:40.229Z,24.17
2023-04-09T20:43:28.469Z,24.67
2023-04-09T20:46:16.795Z,16.17
2023-04-09T20:49:30.906Z,20.35
2023-04-09T20:52:19.088Z,21.00
2023-04-09T20:55:07.916Z,23.95
2023-04-09T20:57:56.157Z,21.00
2023-04-09T21:00:44.606Z,20.00
2023-04-09T21:03:34.965Z,20.35
2023-04-09T21:06:23.313Z,23.27
2023-04-09T21:09:11.509Z,25.08
2023-04-09T21:12:00.125Z,24.30
2023-04-09T21:14:48.577Z,25.40
2023-04-09T21:17:36.964Z,25.00
2023-04-09T21:20:25.793Z,27.55
2023-04-09T21:23:13.957Z,22.40
2023-04-09T21:26:04.846Z,22.23
2023-04-09T21:28:53.503Z,26.55
2023-04-09T21:31:41.968Z,22.25
2023-04-09T21:34:30.481Z,20.77
2023-04-09T21:37:18.631Z,18.27
2023-04-09T21:40:07.854Z,19.33
2023-04-09T21:42:56.768Z,19.60
2023-04-09T21:45:44.972Z,19.45
2023-04-09T21:48:33.346Z,16.95
2023-04-09T21:51:21.604Z,20.60
2023-04-09T21:54:11.255Z,16.67
2023-04-09T21:56:59.424Z,18.30
2023-04-09T21:59:47.769Z,20.80
2023-04-09T22:02:36.036Z,20.27
2023-04-09T22:05:24.212Z,19.17
2023-04-09T22:08:13.268Z,21.52
2023-04-09T22:11:01.981Z,17.23
2023-04-09T22:13:50.451Z,16.70
2023-04-09T22:16:38.796Z,16.55
2023-04-09T22:19:31.401Z,20.05
2023-04-09T22:22:19.583Z,18.52
2023-04-09T22:25:08.446Z,19.95
2023-04-09T22:27:56.610Z,18.38
2023-04-09T22:30:45.277Z,18.27
2023-04-09T22:33:33.798Z,16.38
2023-04-09T22:36:22.191Z,14.30
2023-04-09T22:39:11.006Z,13.88
2023-04-09T22:41:59.603Z,12.85
2023-04-09T22:44:48.006Z,15.00
2023-04-09T22:47:36.565Z,14.88
2023-04-09T22:50:50.164Z,18.02
2023-04-09T22:53:38.326Z,14.82
2023-04-09T22:56:26.613Z,11.98
2023-04-09T22:59:15.654Z,13.63
2023-04-09T23:02:04.197Z,15.02
2023-04-09T23:04:52.475Z,14.52
2023-04-09T23:07:42.817Z,16.08
2023-04-09T23:10:31.697Z,16.60
2023-04-09T23:13:19.805Z,16.15
2023-04-09T23:16:09.614Z,16.65
2023-04-09T23:18:57.798Z,18.20
2023-04-09T23:21:46.236Z,18.88
2023-04-09T23:24:34.462Z,17.35
2023-04-09T23:27:28.293Z,17.35
2023-04-09T23:30:17.189Z,16.70
2023-04-09T23:33:05.881Z,15.00
2023-04-09T23:35:54.285Z,14.25
2023-04-09T23:38:43.907Z,16.88
2023-04-09T23:41:32.164Z,17.23
2023-04-09T23:44:20.724Z,19.38
2023-04-09T23:47:09.063Z,19.80
2023-04-09T23:49:58.181Z,19.13
2023-04-09T23:52:48.172Z,17.92
2023-04-09T23:55:41.671Z,25.63
2023-04-09T23:58:30.107Z,16.45
